Time;durP1;ratioP1;P1;durP2;ratioP2;P2;SDS_P1;SDS_P2;PMS_P1;PMS_P2;Temp;Humidity;BMP_temperature;BMP_pressure;BME280_temperature;BME280_humidity;BME280_pressure;Samples;Min_cycle;Max_cycle;Signal;HPM_P1;HPM_P2
2022/11/14 00:01:17;;;;;;;;;;;;;;;;;;5033561;28;20056;-72
2022/11/14 00:03:43;;;;;;;25.92;20.10;;;;;;;;;;5032922;28;19925;-71
2022/11/14 00:06:10;;;;;;;24.00;18.40;;;;;;;;;;5033637;28;20069;-71
2022/11/14 00:08:36;;;;;;;27.70;19.67;;;;;;;;;;5033129;28;20052;-71
2022/11/14 00:11:03;;;;;;;24.75;18.67;;;;;;;;;;5033700;28;20061;-71
2022/11/14 00:13:29;;;;;;;26.45;19.58;;;;;;;;;;5033465;28;20382;-72
2022/11/14 00:15:56;;;;;;;23.92;19.30;;;;;;;;;;5033423;28;20054;-72
2022/11/14 00:18:22;;;;;;;25.58;20.02;;;;;;;;;;5033034;28;20057;-72
2022/11/14 00:20:49;;;;;;;25.98;20.55;;;;;;;;;;5033289;28;20052;-72
2022/11/14 00:23:16;;;;;;;24.77;19.50;;;;;;;;;;5032972;28;20525;-72
2022/11/14 00:25:43;;;;;;;27.75;20.17;;;;;;;;;;5033243;28;20047;-72
2022/11/14 00:28:10;;;;;;;27.25;21.00;;;;;;;;;;5033191;28;20052;-72
2022/11/14 00:30:36;;;;;;;27.45;20.15;;;;;;;;;;5032698;28;20520;-72
2022/11/14 00:33:02;;;;;;;26.02;20.10;;;;;;;;;;5032878;28;20062;-72
2022/11/14 00:35:29;;;;;;;27.30;20.35;;;;;;;;;;5032723;28;20076;-72
2022/11/14 00:37:55;;;;;;;28.65;20.52;;;;;;;;;;5032707;28;20056;-72
2022/11/14 00:40:21;;;;;;;26.23;18.80;;;;;;;;;;5032803;28;20052;-72
2022/11/14 00:42:48;;;;;;;23.65;18.98;;;;;;;;;;5032703;28;20370;-72
2022/11/14 00:45:14;;;;;;;27.77;20.40;;;;;;;;;;5032463;28;20053;-72
2022/11/14 00:47:41;;;;;;;28.77;19.80;;;;;;;;;;5032822;28;20125;-72
2022/11/14 00:50:08;;;;;;;26.52;19.23;;;;;;;;;;5032819;28;20064;-72
2022/11/14 00:52:35;;;;;;;25.70;20.00;;;;;;;;;;5032480;28;20420;-72
2022/11/14 00:55:01;;;;;;;27.65;19.35;;;;;;;;;;5031562;28;20060;-72
2022/11/14 00:57:27;;;;;;;23.10;18.73;;;;;;;;;;5032480;28;20053;-72
2022/11/14 00:59:54;;;;;;;26.50;19.67;;;;;;;;;;5023629;28;20050;-72
2022/11/14 01:02:21;;;;;;;23.87;18.73;;;;;;;;;;5027309;28;20056;-72
2022/11/14 01:04:47;;;;;;;26.88;19.55;;;;;;;;;;5032479;28;20041;-71
2022/11/14 01:07:14;;;;;;;24.63;19.75;;;;;;;;;;5032220;28;20053;-72
2022/11/14 01:09:40;;;;;;;26.75;20.05;;;;;;;;;;5032105;28;20060;-72
2022/11/14 01:12:06;;;;;;;25.48;18.80;;;;;;;;;;5032114;28;20161;-72
2022/11/14 01:14:33;;;;;;;25.25;19.40;;;;;;;;;;5031883;28;20057;-72
2022/11/14 01:16:59;;;;;;;29.55;19.20;;;;;;;;;;5031958;28;20056;-72
2022/11/14 01:19:26;;;;;;;25.52;19.80;;;;;;;;;;5031956;28;20519;-72
2022/11/14 01:21:52;;;;;;;27.23;20.20;;;;;;;;;;5031938;28;20051;-72
2022/11/14 01:24:18;;;;;;;26.30;19.42;;;;;;;;;;5031926;28;20049;-72
2022/11/14 01:26:45;;;;;;;27.35;19.63;;;;;;;;;;5031733;28;20054;-72
2022/11/14 01:29:11;;;;;;;24.20;19.35;;;;;;;;;;5031806;28;20060;-72
2022/11/14 01:31:37;;;;;;;28.58;19.73;;;;;;;;;;5032134;28;20054;-72
2022/11/14 01:34:04;;;;;;;28.10;18.80;;;;;;;;;;5032076;28;20237;-72
2022/11/14 01:36:30;;;;;;;29.55;19.85;;;;;;;;;;5031714;28;20059;-72
2022/11/14 01:38:56;;;;;;;26.38;18.92;;;;;;;;;;5032098;28;20041;-72
2022/11/14 01:41:23;;;;;;;30.80;19.70;;;;;;;;;;5031973;28;20057;-72
2022/11/14 01:43:49;;;;;;;26.20;19.17;;;;;;;;;;5031910;28;20051;-72
2022/11/14 01:46:18;;;;;;;28.77;20.70;;;;;;;;;;5031660;28;20056;-72
2022/11/14 01:48:48;;;;;;;25.85;19.70;;;;;;;;;;5031707;28;20050;-72
2022/11/14 01:51:17;;;;;;;26.38;20.52;;;;;;;;;;5018457;28;20053;-72
2022/11/14 01:53:44;;;;;;;26.58;20.33;;;;;;;;;;5031071;28;20061;-72
2022/11/14 01:56:12;;;;;;;26.70;19.85;;;;;;;;;;5031550;28;20072;-72
2022/11/14 01:58:38;;;;;;;;;;;;;;;;;;5032218;28;20056;-72
2022/11/14 02:01:05;;;;;;;27.30;19.80;;;;;;;;;;5030368;28;19925;-72
2022/11/14 02:03:32;;;;;;;30.05;20.30;;;;;;;;;;5031608;28;20049;-72
2022/11/14 02:06:00;;;;;;;30.30;20.65;;;;;;;;;;5031838;28;20057;-72
2022/11/14 02:08:26;;;;;;;;;;;;;;;;;;5032100;28;20041;-72
2022/11/14 02:10:53;;;;;;;28.50;19.87;;;;;;;;;;5030477;28;20304;-72
2022/11/14 02:13:19;;;;;;;30.45;20.38;;;;;;;;;;5031768;28;20285;-72
2022/11/14 02:15:45;;;;;;;32.00;20.30;;;;;;;;;;5031548;28;20384;-72
2022/11/14 02:18:12;;;;;;;31.75;20.90;;;;;;;;;;5030512;28;20057;-72
2022/11/14 02:20:42;;;;;;;31.00;20.70;;;;;;;;;;5031289;28;20468;-72
2022/11/14 02:23:09;;;;;;;29.95;20.40;;;;;;;;;;5031159;28;20519;-72
2022/11/14 02:25:36;;;;;;;30.35;21.13;;;;;;;;;;5030104;28;20053;-72
2022/11/14 02:28:03;;;;;;;29.83;20.50;;;;;;;;;;5030200;28;20046;-72
2022/11/14 02:30:29;;;;;;;29.52;20.38;;;;;;;;;;5031515;28;20045;-72
2022/11/14 02:32:56;;;;;;;30.38;20.67;;;;;;;;;;5031609;28;20059;-72
2022/11/14 02:35:36;;;;;;;29.13;20.52;;;;;;;;;;5031125;28;20060;-72
2022/11/14 02:38:02;;;;;;;28.70;19.38;;;;;;;;;;5031394;28;20053;-72
2022/11/14 02:40:29;;;;;;;28.20;20.58;;;;;;;;;;5031255;28;20049;-72
2022/11/14 02:42:55;;;;;;;30.17;20.67;;;;;;;;;;5031399;28;20041;-72
2022/11/14 02:45:21;;;;;;;31.25;19.58;;;;;;;;;;5031092;28;20042;-72
2022/11/14 02:47:48;;;;;;;30.75;19.80;;;;;;;;;;5031161;28;20057;-72
2022/11/14 02:50:14;;;;;;;27.60;20.23;;;;;;;;;;5031259;28;20053;-72
2022/11/14 02:52:41;;;;;;;25.70;19.35;;;;;;;;;;5030793;28;20067;-72
2022/11/14 02:55:07;;;;;;;26.65;19.70;;;;;;;;;;5031053;28;20493;-72
2022/11/14 02:57:34;;;;;;;23.95;18.35;;;;;;;;;;5031341;28;20132;-72
2022/11/14 03:00:00;;;;;;;28.48;19.80;;;;;;;;;;5031007;28;20053;-72
2022/11/14 03:02:27;;;;;;;27.02;19.88;;;;;;;;;;5031120;28;20045;-72
2022/11/14 03:04:53;;;;;;;27.33;18.92;;;;;;;;;;5031132;28;20052;-72
2022/11/14 03:07:19;;;;;;;26.90;19.25;;;;;;;;;;5034828;28;20049;-72
2022/11/14 03:09:46;;;;;;;28.45;19.35;;;;;;;;;;5034535;28;20077;-72
2022/11/14 03:12:16;;;;;;;27.35;20.40;;;;;;;;;;5034584;28;20042;-72
2022/11/14 03:14:43;;;;;;;26.42;18.00;;;;;;;;;;5034579;28;20076;-72
2022/11/14 03:17:09;;;;;;;25.55;18.88;;;;;;;;;;5033174;28;20405;-72
2022/11/14 03:19:35;;;;;;;23.25;18.25;;;;;;;;;;5034494;28;20052;-72
2022/11/14 03:22:02;;;;;;;26.25;18.10;;;;;;;;;;5029390;28;20050;-72
2022/11/14 03:24:28;;;;;;;26.95;18.73;;;;;;;;;;5025319;28;20053;-72
2022/11/14 03:26:55;;;;;;;27.42;17.60;;;;;;;;;;5034330;28;20416;-72
2022/11/14 03:29:21;;;;;;;23.60;18.05;;;;;;;;;;5034151;28;20050;-72
2022/11/14 03:31:47;;;;;;;28.65;18.77;;;;;;;;;;5033918;28;20060;-72
2022/11/14 03:34:14;;;;;;;25.73;17.65;;;;;;;;;;5034203;28;20053;-72
2022/11/14 03:36:40;;;;;;;24.92;17.65;;;;;;;;;;5033799;28;20417;-72
2022/11/14 03:39:06;;;;;;;21.58;18.08;;;;;;;;;;5033982;28;20413;-72
2022/11/14 03:41:33;;;;;;;22.80;17.45;;;;;;;;;;5033907;28;20076;-72
2022/11/14 03:43:59;;;;;;;26.00;18.25;;;;;;;;;;5033682;28;20055;-72
2022/11/14 03:46:26;;;;;;;23.05;18.08;;;;;;;;;;5033740;28;20049;-72
2022/11/14 03:48:52;;;;;;;23.88;18.45;;;;;;;;;;5033523;28;20049;-72
2022/11/14 03:51:18;;;;;;;24.35;18.00;;;;;;;;;;5033938;28;20056;-72
2022/11/14 03:53:45;;;;;;;20.88;17.20;;;;;;;;;;5033777;28;20060;-72
2022/11/14 03:56:11;;;;;;;24.55;18.30;;;;;;;;;;5033466;28;20575;-72
2022/11/14 03:58:37;;;;;;;24.33;18.83;;;;;;;;;;5033455;28;20064;-72
2022/11/14 04:01:04;;;;;;;22.30;18.08;;;;;;;;;;5033108;28;20045;-72
2022/11/14 04:03:30;;;;;;;24.70;19.02;;;;;;;;;;5033754;28;20052;-72
2022/11/14 04:05:57;;;;;;;23.10;18.98;;;;;;;;;;5033540;28;20128;-72
2022/11/14 04:08:23;;;;;;;24.75;17.98;;;;;;;;;;5026789;28;20046;-72
2022/11/14 04:10:49;;;;;;;24.13;18.58;;;;;;;;;;5033085;28;20057;-71
2022/11/14 04:13:16;;;;;;;23.52;18.08;;;;;;;;;;5033226;28;20049;-72
2022/11/14 04:15:42;;;;;;;24.50;18.35;;;;;;;;;;5032757;28;20497;-71
2022/11/14 04:18:08;;;;;;;24.73;18.58;;;;;;;;;;5033601;28;20386;-72
2022/11/14 04:20:35;;;;;;;22.02;17.05;;;;;;;;;;5033437;28;20432;-72
2022/11/14 04:23:01;;;;;;;19.92;17.15;;;;;;;;;;5033087;28;20045;-72
2022/11/14 04:25:28;;;;;;;21.95;16.63;;;;;;;;;;5032840;28;20045;-72
2022/11/14 04:27:54;;;;;;;22.80;17.02;;;;;;;;;;5032936;28;20049;-72
2022/11/14 04:30:20;;;;;;;20.58;16.65;;;;;;;;;;5031534;28;20055;-72
2022/11/14 04:32:48;;;;;;;20.25;15.82;;;;;;;;;;5032829;28;20041;-72
2022/11/14 04:35:14;;;;;;;20.20;16.10;;;;;;;;;;5032870;28;20136;-72
2022/11/14 04:37:41;;;;;;;19.17;16.35;;;;;;;;;;5032720;28;20512;-72
2022/11/14 04:40:07;;;;;;;18.42;16.13;;;;;;;;;;5032686;28;20512;-72
2022/11/14 04:42:34;;;;;;;17.83;15.70;;;;;;;;;;5032552;28;20041;-72
2022/11/14 04:45:00;;;;;;;21.48;16.80;;;;;;;;;;5032648;28;20501;-72
2022/11/14 04:47:26;;;;;;;22.52;16.77;;;;;;;;;;5032843;28;20095;-72
2022/11/14 04:49:53;;;;;;;21.30;16.25;;;;;;;;;;5032923;28;20041;-72
2022/11/14 04:52:19;;;;;;;23.48;17.23;;;;;;;;;;5031506;28;20056;-72
2022/11/14 04:54:45;;;;;;;21.92;16.30;;;;;;;;;;5031233;28;20049;-72
2022/11/14 04:57:12;;;;;;;19.70;16.73;;;;;;;;;;5032408;28;20054;-72
2022/11/14 04:59:38;;;;;;;17.30;15.32;;;;;;;;;;5031084;28;20413;-72
2022/11/14 05:02:05;;;;;;;25.67;17.20;;;;;;;;;;5032421;28;20049;-72
2022/11/14 05:04:31;;;;;;;20.63;16.48;;;;;;;;;;5032375;28;20045;-72
2022/11/14 05:06:57;;;;;;;22.30;16.73;;;;;;;;;;5032559;28;20037;-72
2022/11/14 05:09:24;;;;;;;19.73;15.57;;;;;;;;;;5032523;28;20096;-72
2022/11/14 05:11:50;;;;;;;18.60;15.75;;;;;;;;;;5032471;28;20389;-72
2022/11/14 05:14:17;;;;;;;19.48;15.90;;;;;;;;;;5032204;28;20053;-72
2022/11/14 05:16:43;;;;;;;23.23;16.50;;;;;;;;;;5032294;28;20060;-72
2022/11/14 05:19:09;;;;;;;19.58;15.63;;;;;;;;;;5032154;28;20068;-72
2022/11/14 05:21:36;;;;;;;21.35;15.60;;;;;;;;;;5031980;28;20401;-72
2022/11/14 05:24:02;;;;;;;20.15;16.23;;;;;;;;;;5032065;28;20041;-72
2022/11/14 05:26:28;;;;;;;20.63;16.17;;;;;;;;;;5031912;28;20565;-72
2022/11/14 05:28:55;;;;;;;20.90;15.05;;;;;;;;;;5031424;28;20052;-72
2022/11/14 05:31:21;;;;;;;21.30;16.55;;;;;;;;;;5032167;28;20049;-72
2022/11/14 05:33:48;;;;;;;18.67;16.50;;;;;;;;;;5031767;28;20507;-72
2022/11/14 05:36:15;;;;;;;20.98;16.20;;;;;;;;;;5031809;28;20061;-72
2022/11/14 05:38:41;;;;;;;19.13;15.77;;;;;;;;;;5031804;28;20053;-72
2022/11/14 05:41:09;;;;;;;18.35;16.33;;;;;;;;;;5031791;28;20064;-72
2022/11/14 05:43:36;;;;;;;22.90;16.42;;;;;;;;;;5031653;28;20501;-72
2022/11/14 05:46:03;;;;;;;21.90;17.33;;;;;;;;;;5031663;28;20051;-72
2022/11/14 05:48:30;;;;;;;22.88;16.17;;;;;;;;;;5031833;28;20052;-72
2022/11/14 05:50:57;;;;;;;;;;;;;;;;;;5032018;28;20056;-72
2022/11/14 05:53:24;;;;;;;20.83;17.00;;;;;;;;;;5031658;28;19925;-71
2022/11/14 05:55:50;;;;;;;19.23;16.23;;;;;;;;;;5031510;28;20045;-71
2022/11/14 05:58:17;;;;;;;24.17;16.38;;;;;;;;;;5031581;28;20049;-72
2022/11/14 06:00:43;;;;;;;26.58;16.30;;;;;;;;;;5031723;28;20049;-72
2022/11/14 06:03:19;;;;;;;24.13;16.95;;;;;;;;;;5031854;28;20071;-72
2022/11/14 06:05:45;;;;;;;20.60;15.75;;;;;;;;;;5030298;28;20141;-72
2022/11/14 06:08:12;;;;;;;21.17;16.67;;;;;;;;;;5031446;28;20061;-72
2022/11/14 06:10:38;;;;;;;25.42;16.88;;;;;;;;;;5031464;28;20084;-72
2022/11/14 06:13:05;;;;;;;19.48;16.60;;;;;;;;;;5031546;28;20124;-72
2022/11/14 06:15:31;;;;;;;21.02;16.92;;;;;;;;;;5020421;28;20545;-72
2022/11/14 06:17:58;;;;;;;22.55;16.80;;;;;;;;;;5028955;28;20378;-72
2022/11/14 06:20:24;;;;;;;25.00;17.45;;;;;;;;;;5031247;28;20056;-72
2022/11/14 06:22:52;;;;;;;21.45;16.60;;;;;;;;;;5031435;28;20049;-72
2022/11/14 06:25:19;;;;;;;21.40;16.20;;;;;;;;;;5031725;28;20042;-72
2022/11/14 06:27:45;;;;;;;20.35;15.50;;;;;;;;;;5031502;28;20049;-72
2022/11/14 06:30:12;;;;;;;23.95;16.38;;;;;;;;;;5031212;28;20374;-72
2022/11/14 06:32:38;;;;;;;20.95;16.67;;;;;;;;;;5031325;28;20053;-72
2022/11/14 06:35:07;;;;;;;24.08;15.30;;;;;;;;;;5031249;28;20421;-72
2022/11/14 06:37:34;;;;;;;19.85;15.75;;;;;;;;;;5031522;28;20041;-72
2022/11/14 06:40:01;;;;;;;21.90;15.82;;;;;;;;;;5033294;28;20061;-72
2022/11/14 06:42:27;;;;;;;23.38;15.73;;;;;;;;;;5034858;28;20430;-72
2022/11/14 06:44:53;;;;;;;17.58;15.70;;;;;;;;;;5035057;28;20052;-72
2022/11/14 06:47:20;;;;;;;19.60;15.93;;;;;;;;;;5035320;28;20056;-72
2022/11/14 06:49:46;;;;;;;18.70;13.90;;;;;;;;;;5034850;28;20049;-72
2022/11/14 06:52:12;;;;;;;17.05;15.07;;;;;;;;;;5034670;28;20053;-72
2022/11/14 06:54:39;;;;;;;18.20;14.40;;;;;;;;;;5034934;28;20444;-72
2022/11/14 06:57:05;;;;;;;17.95;14.48;;;;;;;;;;5033716;28;20060;-72
2022/11/14 06:59:31;;;;;;;22.55;15.13;;;;;;;;;;5034673;28;20052;-72
2022/11/14 07:01:58;;;;;;;18.95;13.95;;;;;;;;;;5034453;28;20531;-72
2022/11/14 07:04:24;;;;;;;21.50;14.98;;;;;;;;;;5034880;28;20045;-72
2022/11/14 07:06:50;;;;;;;21.73;15.30;;;;;;;;;;5034721;28;20053;-72
2022/11/14 07:09:17;;;;;;;24.50;15.95;;;;;;;;;;5034580;28;20132;-72
2022/11/14 07:11:45;;;;;;;22.88;15.15;;;;;;;;;;5034588;28;20049;-73
2022/11/14 07:14:12;;;;;;;24.85;16.83;;;;;;;;;;5034587;28;20059;-73
2022/11/14 07:16:38;;;;;;;20.85;16.25;;;;;;;;;;5034301;28;20052;-72
2022/11/14 07:19:05;;;;;;;22.73;15.63;;;;;;;;;;5033010;28;20057;-73
2022/11/14 07:21:33;;;;;;;21.00;16.30;;;;;;;;;;5034409;28;20049;-73
2022/11/14 07:23:59;;;;;;;22.75;15.80;;;;;;;;;;5032929;28;20520;-73
2022/11/14 07:26:26;;;;;;;24.20;16.33;;;;;;;;;;5034280;28;20057;-73
2022/11/14 07:28:52;;;;;;;24.35;16.63;;;;;;;;;;5018429;28;20045;-70
2022/11/14 07:31:26;;;;;;;26.38;17.73;;;;;;;;;;5013812;28;20045;-69
2022/11/14 07:33:53;;;;;;;21.65;16.95;;;;;;;;;;5013415;28;20046;-70
2022/11/14 07:36:19;;;;;;;21.98;16.70;;;;;;;;;;5013780;28;20061;-70
2022/11/14 07:38:46;;;;;;;22.48;17.15;;;;;;;;;;5014054;28;20421;-70
2022/11/14 07:41:13;;;;;;;23.10;17.63;;;;;;;;;;5013839;28;20050;-73
2022/11/14 07:43:40;;;;;;;23.05;17.27;;;;;;;;;;5026541;28;20075;-73
2022/11/14 07:46:11;;;;;;;27.57;17.77;;;;;;;;;;5033904;28;20048;-74
2022/11/14 07:48:37;;;;;;;22.50;16.80;;;;;;;;;;5034006;28;20287;-74
2022/11/14 07:51:05;;;;;;;20.35;16.38;;;;;;;;;;5032740;28;20041;-73
2022/11/14 07:53:32;;;;;;;24.35;16.65;;;;;;;;;;5031119;28;20512;-74
2022/11/14 07:56:03;;;;;;;24.60;17.55;;;;;;;;;;5022040;28;20071;-74
2022/11/14 07:58:29;;;;;;;23.38;16.52;;;;;;;;;;5033770;28;20053;-73
2022/11/14 08:00:59;;;;;;;24.10;18.02;;;;;;;;;;5033491;28;20056;-73
2022/11/14 08:03:26;;;;;;;21.00;16.15;;;;;;;;;;5033807;28;20122;-72
2022/11/14 08:06:03;;;;;;;23.85;17.13;;;;;;;;;;5033659;28;20124;-73
2022/11/14 08:08:29;;;;;;;24.02;17.20;;;;;;;;;;5033484;28;20409;-74
2022/11/14 08:10:57;;;;;;;23.63;17.98;;;;;;;;;;5033553;28;20045;-74
2022/11/14 08:13:23;;;;;;;25.92;17.27;;;;;;;;;;5022138;28;20509;-73
2022/11/14 08:16:01;;;;;;;22.33;16.73;;;;;;;;;;5012941;28;20552;-74
2022/11/14 08:18:27;;;;;;;21.00;16.80;;;;;;;;;;5030443;28;20060;-73
2022/11/14 08:20:56;;;;;;;26.33;17.20;;;;;;;;;;5030752;28;20056;-74
2022/11/14 08:23:22;;;;;;;21.35;16.27;;;;;;;;;;5018737;28;20348;-75
2022/11/14 08:25:49;;;;;;;23.63;17.65;;;;;;;;;;5033089;28;20045;-72
2022/11/14 08:28:15;;;;;;;21.67;16.17;;;;;;;;;;5032923;28;20481;-76
2022/11/14 08:30:41;;;;;;;21.45;16.90;;;;;;;;;;5020100;28;20046;-72
2022/11/14 08:33:08;;;;;;;22.02;17.40;;;;;;;;;;5019906;28;20050;-73
2022/11/14 08:35:35;;;;;;;21.42;16.73;;;;;;;;;;5012452;28;20057;-73
2022/11/14 08:38:01;;;;;;;29.48;17.58;;;;;;;;;;5017599;28;20052;-72
2022/11/14 08:40:28;;;;;;;21.63;16.48;;;;;;;;;;5006354;28;20049;-72
2022/11/14 08:42:58;;;;;;;23.15;16.00;;;;;;;;;;5021558;28;20081;-72
2022/11/14 08:45:25;;;;;;;23.70;17.05;;;;;;;;;;5032777;28;20049;-72
2022/11/14 08:47:52;;;;;;;20.30;16.00;;;;;;;;;;5032628;28;20124;-72
2022/11/14 08:50:18;;;;;;;21.23;15.77;;;;;;;;;;5032942;28;20056;-72
2022/11/14 08:52:51;;;;;;;21.70;15.48;;;;;;;;;;5032458;28;20049;-72
2022/11/14 08:55:18;;;;;;;19.45;14.65;;;;;;;;;;5032517;28;20049;-72
2022/11/14 08:57:44;;;;;;;19.95;15.75;;;;;;;;;;5031259;28;20045;-72
2022/11/14 09:00:15;;;;;;;20.42;13.95;;;;;;;;;;5032794;28;20199;-72
2022/11/14 09:02:42;;;;;;;19.23;14.63;;;;;;;;;;5031557;28;20041;-72
2022/11/14 09:05:08;;;;;;;21.60;14.63;;;;;;;;;;5015072;28;20042;-70
2022/11/14 09:07:34;;;;;;;18.90;14.02;;;;;;;;;;5012462;28;20048;-70
2022/11/14 09:10:01;;;;;;;20.58;14.60;;;;;;;;;;5011104;28;20069;-71
2022/11/14 09:12:28;;;;;;;20.38;13.68;;;;;;;;;;5014343;28;20108;-70
2022/11/14 09:14:54;;;;;;;22.33;14.75;;;;;;;;;;5027131;28;20413;-70
2022/11/14 09:17:20;;;;;;;18.30;14.20;;;;;;;;;;5029155;28;20054;-70
2022/11/14 09:19:47;;;;;;;17.63;13.27;;;;;;;;;;5031613;28;20064;-70
2022/11/14 09:22:13;;;;;;;18.55;12.57;;;;;;;;;;5031667;28;20481;-71
2022/11/14 09:24:40;;;;;;;17.45;12.00;;;;;;;;;;5014360;28;20046;-71
2022/11/14 09:27:06;;;;;;;16.92;10.32;;;;;;;;;;5026416;28;20474;-71
2022/11/14 09:29:32;;;;;;;12.65;8.88;;;;;;;;;;5019170;28;20593;-71
2022/11/14 09:31:59;;;;;;;10.32;8.82;;;;;;;;;;5011107;28;20054;-71
2022/11/14 09:34:25;;;;;;;12.25;9.13;;;;;;;;;;5011283;28;20050;-71
2022/11/14 09:36:51;;;;;;;14.00;8.02;;;;;;;;;;5014217;28;20049;-71
2022/11/14 09:39:18;;;;;;;11.50;7.95;;;;;;;;;;5018195;28;20057;-71
2022/11/14 09:41:56;;;;;;;9.07;7.77;;;;;;;;;;5011447;28;20401;-71
2022/11/14 09:44:39;;;;;;;12.52;7.55;;;;;;;;;;5027466;28;20124;-71
2022/11/14 09:47:11;;;;;;;12.15;7.13;;;;;;;;;;5015059;28;20081;-71
2022/11/14 09:49:48;;;;;;;8.90;7.00;;;;;;;;;;5012596;28;20547;-71
2022/11/14 09:52:33;;;;;;;10.05;6.70;;;;;;;;;;5031503;28;20057;-71
2022/11/14 09:55:19;;;;;;;9.02;6.50;;;;;;;;;;5031272;28;20132;-71
2022/11/14 09:57:46;;;;;;;12.20;6.30;;;;;;;;;;5030618;28;20053;-71
2022/11/14 10:00:13;;;;;;;12.20;6.63;;;;;;;;;;5031291;28;20048;-71
2022/11/14 10:02:47;;;;;;;7.95;6.95;;;;;;;;;;5029949;28;20132;-71
2022/11/14 10:05:32;;;;;;;8.95;6.72;;;;;;;;;;5029344;28;20404;-71
2022/11/14 10:08:07;;;;;;;8.40;6.65;;;;;;;;;;5013085;28;20457;-71
2022/11/14 10:10:52;;;;;;;8.45;6.30;;;;;;;;;;5031487;28;20056;-71
2022/11/14 10:13:38;;;;;;;8.20;5.80;;;;;;;;;;5009089;28;20060;-71
2022/11/14 10:16:13;;;;;;;11.63;6.13;;;;;;;;;;5018657;28;20136;-71
2022/11/14 10:18:43;;;;;;;8.32;6.03;;;;;;;;;;5035185;28;20049;-71
2022/11/14 10:21:09;;;;;;;8.50;5.30;;;;;;;;;;5034859;28;20049;-71
2022/11/14 10:23:44;;;;;;;7.97;5.13;;;;;;;;;;5034784;28;20071;-71
2022/11/14 10:26:30;;;;;;;7.15;4.63;;;;;;;;;;5035083;28;20045;-71
2022/11/14 10:29:15;;;;;;;6.78;5.15;;;;;;;;;;5023190;28;20128;-72
2022/11/14 10:31:42;;;;;;;7.30;4.93;;;;;;;;;;5013577;28;20060;-71
2022/11/14 10:34:08;;;;;;;;;;;;;;;;;;5013124;28;20386;-73
2022/11/14 10:36:38;;;;;;;6.78;4.38;;;;;;;;;;5024972;28;20423;-73
2022/11/14 10:39:11;;;;;;;7.65;4.35;;;;;;;;;;5034393;28;20092;-73
2022/11/14 10:41:38;;;;;;;7.25;4.10;;;;;;;;;;5034835;28;20515;-73
2022/11/14 10:44:25;;;;;;;6.13;4.60;;;;;;;;;;5034478;28;20107;-74
2022/11/14 10:46:56;;;;;;;7.53;4.18;;;;;;;;;;5022594;28;20072;-72
2022/11/14 10:49:24;;;;;;;7.57;4.47;;;;;;;;;;5033398;28;20402;-73
2022/11/14 10:51:56;;;;;;;6.40;4.15;;;;;;;;;;5034531;28;20050;-73
2022/11/14 10:54:31;;;;;;;5.45;3.78;;;;;;;;;;5034220;28;20046;-73
2022/11/14 10:56:57;;;;;;;5.28;3.60;;;;;;;;;;5034556;28;20052;-73
2022/11/14 10:59:26;;;;;;;4.80;3.10;;;;;;;;;;5025570;28;20046;-73
2022/11/14 11:01:54;;;;;;;5.10;3.05;;;;;;;;;;5028733;28;20049;-74
2022/11/14 11:04:40;;;;;;;6.18;3.10;;;;;;;;;;5033033;28;20408;-72
2022/11/14 11:07:07;;;;;;;3.63;2.83;;;;;;;;;;5025293;28;20134;-73
2022/11/14 11:12:44;;;;;;;6.30;2.35;;;;;;;;;;5034137;28;20049;-73
2022/11/14 11:15:22;;;;;;;3.22;2.22;;;;;;;;;;5032108;28;20417;-72
2022/11/14 11:17:58;;;;;;;4.00;2.50;;;;;;;;;;5034011;28;20095;-73
2022/11/14 11:20:26;;;;;;;3.65;2.40;;;;;;;;;;5033693;28;20049;-72
2022/11/14 11:23:08;;;;;;;4.43;2.47;;;;;;;;;;5019504;28;20132;-72
2022/11/14 11:25:35;;;;;;;5.90;2.97;;;;;;;;;;5033131;28;20049;-72
2022/11/14 11:28:01;;;;;;;;;;;;;;;;;;5034309;28;20049;-72
2022/11/14 11:30:27;;;;;;;5.25;3.03;;;;;;;;;;5026707;28;19928;-72
2022/11/14 11:32:54;;;;;;;7.23;3.40;;;;;;;;;;5026312;28;20084;-71
2022/11/14 11:35:21;;;;;;;5.38;3.05;;;;;;;;;;5033448;28;20049;-73
2022/11/14 11:37:53;;;;;;;7.32;3.38;;;;;;;;;;5027560;28;20443;-73
2022/11/14 11:40:24;;;;;;;6.80;3.65;;;;;;;;;;5023263;28;20542;-73
2022/11/14 11:42:56;;;;;;;8.13;3.63;;;;;;;;;;5028607;28;20045;-73
2022/11/14 11:45:44;;;;;;;5.13;3.88;;;;;;;;;;5012777;28;20496;-75
2022/11/14 11:48:16;;;;;;;6.32;3.70;;;;;;;;;;5020743;28;20049;-74
2022/11/14 11:50:42;;;;;;;10.15;4.00;;;;;;;;;;5033478;28;20050;-74
2022/11/14 11:53:16;;;;;;;5.72;4.50;;;;;;;;;;5033112;28;20425;-74
2022/11/14 11:55:45;;;;;;;6.35;5.20;;;;;;;;;;5021505;28;20046;-73
2022/11/14 11:58:30;;;;;;;8.15;5.68;;;;;;;;;;5012512;28;20501;-73
2022/11/14 12:00:56;;;;;;;9.88;6.53;;;;;;;;;;5012316;28;20056;-75
2022/11/14 12:03:24;;;;;;;9.13;6.63;;;;;;;;;;5012814;28;20050;-74
2022/11/14 12:05:50;;;;;;;;;;;;;;;;;;5017216;28;20046;-75
2022/11/14 12:08:25;;;;;;;8.73;6.20;;;;;;;;;;5012688;28;19922;-75
2022/11/14 12:10:52;;;;;;;7.88;6.03;;;;;;;;;;5019908;28;20056;-74
2022/11/14 12:13:48;;;;;;;7.32;6.30;;;;;;;;;;5026700;28;20395;-74
2022/11/14 12:16:14;;;;;;;7.47;5.70;;;;;;;;;;5009671;28;20050;-74
2022/11/14 12:18:48;;;;;;;7.75;5.90;;;;;;;;;;5031186;28;20053;-75
2022/11/14 12:21:21;;;;;;;9.13;5.70;;;;;;;;;;5010591;28;20508;-74
2022/11/14 12:23:47;;;;;;;7.85;5.45;;;;;;;;;;5029336;28;20397;-74
2022/11/14 12:26:22;;;;;;;7.93;5.75;;;;;;;;;;5015504;28;20056;-73
2022/11/14 12:29:07;;;;;;;7.97;5.13;;;;;;;;;;5012009;28;20049;-74
2022/11/14 12:31:36;;;;;;;7.45;4.95;;;;;;;;;;5028046;28;20136;-69
2022/11/14 12:34:25;;;;;;;6.50;4.57;;;;;;;;;;5023789;28;20058;-72
2022/11/14 12:36:51;;;;;;;6.55;4.03;;;;;;;;;;5029911;28;20081;-72
2022/11/14 12:39:23;;;;;;;6.13;4.20;;;;;;;;;;5031412;28;20085;-72
2022/11/14 12:41:59;;;;;;;5.00;3.17;;;;;;;;;;5031686;28;20485;-72
2022/11/14 12:44:25;;;;;;;6.63;3.85;;;;;;;;;;5032102;28;20046;-72
2022/11/14 12:47:04;;;;;;;5.80;3.45;;;;;;;;;;5032104;28;20107;-72
2022/11/14 12:49:37;;;;;;;5.07;3.05;;;;;;;;;;5031773;28;20056;-72
2022/11/14 12:52:03;;;;;;;6.15;3.35;;;;;;;;;;5032356;28;20489;-72
2022/11/14 12:54:43;;;;;;;4.43;3.60;;;;;;;;;;5031278;28;20489;-72
2022/11/14 12:57:46;;;;;;;7.40;2.70;;;;;;;;;;5032583;28;20132;-72
2022/11/14 13:00:03;;;;;;;4.80;3.50;;;;;;;;;;5032411;28;20055;-71
2022/11/14 13:02:38;;;;;;;4.88;2.90;;;;;;;;;;5032184;28;20046;-72
2022/11/14 13:05:15;;;;;;;5.07;3.53;;;;;;;;;;5032703;28;20052;-72
2022/11/14 13:07:51;;;;;;;6.95;3.30;;;;;;;;;;5031101;28;20132;-72
2022/11/14 13:10:27;;;;;;;4.20;3.10;;;;;;;;;;5032912;28;20051;-71
2022/11/14 13:24:11;;;;;;;4.38;2.00;;;;;;;;;;5032237;28;20046;-72
2022/11/14 13:26:39;;;;;;;0.80;0.75;;;;;;;;;;5032190;28;20041;-72
2022/11/14 13:29:06;;;;;;;1.08;0.90;;;;;;;;;;5031929;28;20045;-72
2022/11/14 13:31:35;;;;;;;2.58;1.20;;;;;;;;;;5031949;28;20041;-71
2022/11/14 13:34:20;;;;;;;1.55;1.30;;;;;;;;;;5031831;28;20469;-71
2022/11/14 13:36:53;;;;;;;3.80;1.90;;;;;;;;;;5030419;28;20497;-71
2022/11/14 13:39:22;;;;;;;2.92;1.90;;;;;;;;;;5031834;28;20063;-72
2022/11/14 13:42:15;;;;;;;5.25;2.53;;;;;;;;;;5030560;28;20501;-71
2022/11/14 13:45:00;;;;;;;4.25;3.05;;;;;;;;;;5031166;28;20053;-72
2022/11/14 13:47:35;;;;;;;2.25;2.10;;;;;;;;;;5023653;28;20437;-72
2022/11/14 13:50:06;;;;;;;4.35;2.22;;;;;;;;;;5014570;28;20054;-76
2022/11/14 13:52:34;;;;;;;2.20;2.00;;;;;;;;;;5003821;28;20047;-72
2022/11/14 13:55:01;;;;;;;3.38;2.38;;;;;;;;;;5031082;28;20416;-70
2022/11/14 13:57:37;;;;;;;3.92;2.17;;;;;;;;;;5030506;28;20057;-73
2022/11/14 14:00:07;;;;;;;2.60;0.95;;;;;;;;;;5002673;28;20058;-71
2022/11/14 14:02:42;;;;;;;3.83;1.40;;;;;;;;;;5025774;28;20053;-72
2022/11/14 14:05:20;;;;;;;2.45;0.88;;;;;;;;;;5031018;28;20060;-72
2022/11/14 14:07:46;;;;;;;;;;;;;;;;;;5020934;28;20060;-73
2022/11/14 14:10:31;;;;;;;4.47;0.88;;;;;;;;;;5031086;28;19960;-74
2022/11/14 14:12:57;;;;;;;3.55;1.20;;;;;;;;;;5031215;28;20049;-73
2022/11/14 14:15:31;;;;;;;2.55;1.10;;;;;;;;;;5030918;28;20042;-74
2022/11/14 14:18:16;;;;;;;2.55;0.88;;;;;;;;;;5030956;28;20053;-75
2022/11/14 14:20:43;;;;;;;2.67;1.05;;;;;;;;;;5031091;28;20048;-72
2022/11/14 14:23:28;;;;;;;2.20;1.20;;;;;;;;;;5030756;28;20125;-72
2022/11/14 14:26:13;;;;;;;3.55;1.00;;;;;;;;;;5031209;28;20041;-72
2022/11/14 14:29:02;;;;;;;3.42;0.90;;;;;;;;;;5031019;28;20052;-73
2022/11/14 14:31:36;;;;;;;4.35;1.20;;;;;;;;;;5026013;28;20065;-73
2022/11/14 14:34:02;;;;;;;3.78;0.70;;;;;;;;;;5010861;28;20057;-73
2022/11/14 14:36:29;;;;;;;2.53;0.82;;;;;;;;;;5016708;28;20061;-73
2022/11/14 14:39:08;;;;;;;2.58;0.60;;;;;;;;;;5031080;28;20049;-73
2022/11/14 14:41:34;;;;;;;1.73;0.55;;;;;;;;;;5020418;28;20057;-72
2022/11/14 14:44:01;;;;;;;2.13;0.52;;;;;;;;;;5010295;28;20417;-73
2022/11/14 14:46:31;;;;;;;3.75;1.85;;;;;;;;;;5010421;28;20053;-73
2022/11/14 14:49:00;;;;;;;2.47;2.15;;;;;;;;;;5010309;28;20056;-74
2022/11/14 14:51:31;;;;;;;3.85;3.25;;;;;;;;;;5017415;28;20136;-72
2022/11/14 14:53:58;;;;;;;3.53;1.85;;;;;;;;;;5016170;28;20060;-73